createdAt,value
2019-04-23T00:01:47.952Z,76.00
2019-04-23T00:04:20.190Z,76.40
2019-04-23T00:07:08.125Z,76.90
2019-04-23T00:09:18.955Z,77.40
2019-04-23T00:11:51.685Z,78.00
2019-04-23T00:14:30.331Z,78.30
2019-04-23T00:16:51.148Z,78.70
2019-04-23T00:19:26.091Z,78.80
2019-04-23T00:22:11.179Z,79.20
2019-04-23T00:25:20.607Z,79.00
2019-04-23T00:29:53.363Z,79.50
2019-04-23T00:32:21.744Z,79.50
2019-04-23T00:37:25.693Z,79.70
2019-04-23T00:42:25.873Z,79.50
2019-04-23T00:44:51.776Z,79.60
2019-04-23T00:47:28.336Z,79.60
2019-04-23T00:50:00.308Z,79.90
2019-04-23T00:52:26.447Z,79.90
2019-04-23T00:55:01.053Z,80.00
2019-04-23T00:57:29.275Z,80.30
2019-04-23T01:00:08.149Z,80.30
2019-04-23T01:02:33.271Z,80.40
2019-04-23T01:05:04.631Z,80.50
2019-04-23T01:07:34.918Z,80.70
2019-04-23T01:10:08.767Z,80.90
2019-04-23T01:12:51.596Z,81.10
2019-04-23T01:15:26.021Z,81.10
2019-04-23T01:18:02.223Z,81.20
2019-04-23T01:20:51.882Z,81.20
2019-04-23T01:22:57.113Z,81.10
2019-04-23T01:25:42.675Z,81.00
2019-04-23T01:28:34.021Z,81.10
2019-04-23T01:31:08.895Z,81.00
2019-04-23T01:33:37.938Z,81.00
2019-04-23T01:36:16.208Z,81.00
2019-04-23T01:38:41.763Z,81.70
2019-04-23T01:41:07.827Z,81.10
2019-04-23T01:46:09.675Z,80.90
2019-04-23T01:48:40.710Z,81.20
2019-04-23T01:51:02.477Z,81.30
2019-04-23T01:53:38.741Z,81.30
2019-04-23T01:56:17.233Z,81.40
2019-04-23T01:58:49.593Z,81.90
2019-04-23T02:01:11.518Z,82.10
2019-04-23T02:03:49.984Z,82.30
2019-04-23T02:08:47.020Z,82.40
2019-04-23T02:11:31.667Z,82.80
2019-04-23T02:13:55.367Z,83.10
2019-04-23T02:16:24.613Z,83.40
2019-04-23T02:21:26.088Z,83.90
2019-04-23T02:23:58.323Z,84.20
2019-04-23T02:26:43.658Z,84.30
2019-04-23T02:29:14.668Z,84.50
2019-04-23T02:36:45.176Z,85.10
2019-04-23T02:39:09.454Z,85.40
2019-04-23T02:41:54.282Z,85.70
2019-04-23T02:44:17.038Z,86.00
2019-04-23T02:46:56.694Z,86.30
2019-04-23T02:49:20.457Z,86.60
2019-04-23T02:54:26.593Z,87.30
2019-04-23T02:56:55.304Z,87.40
2019-04-23T02:59:49.904Z,87.70
2019-04-23T03:02:17.515Z,88.10
2019-04-23T03:04:32.213Z,89.20
2019-04-23T03:06:56.806Z,88.80
2019-04-23T03:09:33.840Z,89.10
2019-04-23T03:14:25.108Z,89.70
2019-04-23T03:17:08.263Z,89.80
2019-04-23T03:19:37.944Z,90.00
2019-04-23T03:22:42.201Z,90.10
2019-04-23T03:25:26.252Z,90.30
2019-04-23T03:27:51.082Z,90.50
2019-04-23T03:38:36.285Z,91.10
2019-04-23T03:40:45.642Z,91.30
2019-04-23T03:43:25.478Z,91.50
2019-04-23T03:48:26.280Z,91.90
2019-04-23T03:50:43.481Z,92.00
2019-04-23T03:53:40.056Z,92.00
2019-04-23T03:56:18.403Z,92.20
2019-04-23T03:58:39.413Z,92.40
2019-04-23T04:04:06.030Z,92.70
2019-04-23T04:06:05.498Z,92.80
2019-04-23T04:08:29.220Z,93.00
2019-04-23T04:16:18.009Z,93.60
2019-04-23T04:18:44.230Z,93.80
2019-04-23T04:23:51.239Z,94.20
2019-04-23T04:26:16.298Z,94.40
2019-04-23T04:28:47.216Z,94.70
2019-04-23T04:31:16.226Z,94.80
2019-04-23T04:36:21.685Z,95.10
2019-04-23T04:38:50.424Z,95.30
2019-04-23T04:41:36.468Z,95.50
2019-04-23T04:44:38.255Z,95.70
2019-04-23T04:46:50.661Z,95.90
2019-04-23T04:49:15.018Z,96.10
2019-04-23T04:51:48.906Z,96.10
2019-04-23T05:01:51.667Z,96.80
2019-04-23T05:04:21.812Z,96.80
2019-04-23T05:06:59.378Z,97.00
2019-04-23T05:09:19.915Z,97.10
2019-04-23T05:14:26.934Z,97.30
2019-04-23T05:16:54.720Z,97.40
2019-04-23T05:19:29.375Z,97.50
2019-04-23T05:24:31.713Z,97.50
2019-04-23T05:26:46.548Z,97.30
2019-04-23T05:29:14.646Z,97.50
2019-04-23T05:31:52.954Z,97.90
2019-04-23T05:34:24.286Z,97.70
2019-04-23T05:36:53.710Z,97.70
2019-04-23T05:39:30.631Z,97.70
2019-04-23T05:41:55.882Z,97.70
2019-04-23T05:44:43.280Z,97.90
2019-04-23T05:47:02.805Z,98.00
2019-04-23T05:49:31.865Z,98.00
2019-04-23T05:52:03.357Z,97.70
2019-04-23T05:54:37.509Z,97.70
2019-04-23T05:57:00.315Z,97.90
2019-04-23T05:59:29.653Z,98.00
2019-04-23T06:04:38.875Z,97.80
2019-04-23T06:07:35.757Z,97.40
2019-04-23T06:09:41.210Z,97.10
2019-04-23T06:12:04.488Z,95.20
2019-04-23T06:14:47.516Z,92.90
2019-04-23T06:17:19.848Z,91.10
2019-04-23T06:19:42.529Z,90.60
2019-04-23T06:22:23.410Z,89.00
2019-04-23T06:27:22.084Z,85.60
2019-04-23T06:29:50.104Z,85.00
2019-04-23T06:32:22.306Z,86.70
2019-04-23T06:34:54.998Z,83.50
2019-04-23T06:37:36.151Z,84.90
2019-04-23T06:39:55.386Z,82.80
2019-04-23T06:42:23.119Z,83.00
2019-04-23T06:44:57.934Z,83.40
2019-04-23T06:47:24.786Z,82.40
2019-04-23T06:49:55.699Z,82.60
2019-04-23T06:52:44.165Z,82.30
2019-04-23T06:55:18.417Z,82.10
2019-04-23T06:57:25.556Z,84.10
2019-04-23T06:59:59.309Z,81.20
2019-04-23T07:02:32.093Z,84.70
2019-04-23T07:07:55.241Z,80.80
2019-04-23T07:10:03.955Z,80.70
2019-04-23T07:12:38.582Z,81.40
2019-04-23T07:15:24.962Z,81.60
2019-04-23T07:17:34.550Z,81.50
2019-04-23T07:20:06.793Z,81.40
2019-04-23T07:22:34.884Z,80.70
2019-04-23T07:25:14.111Z,81.70
2019-04-23T07:27:41.098Z,81.60
2019-04-23T07:30:13.619Z,80.30
2019-04-23T07:32:49.624Z,80.00
2019-04-23T07:35:15.947Z,81.50
2019-04-23T07:37:57.072Z,82.00
2019-04-23T07:43:10.203Z,79.20
2019-04-23T07:46:01.044Z,81.60
2019-04-23T07:48:16.722Z,81.60
2019-04-23T07:51:00.419Z,81.00
2019-04-23T07:56:03.732Z,83.40
2019-04-23T07:58:29.210Z,82.10
2019-04-23T08:03:40.396Z,85.10
2019-04-23T08:06:04.319Z,85.10
2019-04-23T08:08:38.818Z,83.30
2019-04-23T08:13:53.969Z,85.50
2019-04-23T08:21:18.217Z,86.60
2019-04-23T08:24:20.166Z,87.40
2019-04-23T08:27:10.021Z,86.90
2019-04-23T08:29:37.561Z,86.90
2019-04-23T08:32:24.284Z,87.40
2019-04-23T08:37:25.507Z,86.90
2019-04-23T08:40:01.520Z,85.90
2019-04-23T08:42:46.744Z,84.00
2019-04-23T08:48:11.059Z,82.40
2019-04-23T08:50:32.281Z,82.10
2019-04-23T08:53:03.766Z,82.00
2019-04-23T08:57:58.121Z,84.00
2019-04-23T09:00:42.437Z,83.50
2019-04-23T09:03:11.198Z,84.20
2019-04-23T09:08:15.663Z,80.30
2019-04-23T09:10:50.240Z,81.10
2019-04-23T09:15:45.792Z,80.70
2019-04-23T09:18:15.957Z,80.40
2019-04-23T09:20:37.436Z,81.60
2019-04-23T09:23:23.839Z,81.20
2019-04-23T09:25:52.609Z,81.90
2019-04-23T09:28:26.098Z,81.30
2019-04-23T09:36:28.612Z,81.70
2019-04-23T09:39:08.342Z,81.40
2019-04-23T09:41:39.877Z,81.60
2019-04-23T09:44:58.472Z,82.70
2019-04-23T09:48:04.703Z,83.20
2019-04-23T09:50:29.918Z,84.10
2019-04-23T09:53:12.967Z,85.00
2019-04-23T09:55:33.713Z,84.00
2019-04-23T09:58:05.962Z,84.30
2019-04-23T10:00:43.732Z,83.50
2019-04-23T10:02:59.575Z,83.70
2019-04-23T10:05:25.718Z,83.50
2019-04-23T10:07:54.343Z,83.70
2019-04-23T10:10:14.463Z,83.80
2019-04-23T10:12:44.079Z,82.90
2019-04-23T10:15:22.083Z,83.00
2019-04-23T10:17:44.577Z,81.00
2019-04-23T10:20:14.110Z,80.40
2019-04-23T10:22:44.252Z,82.20
2019-04-23T10:25:15.081Z,82.50
2019-04-23T10:27:45.371Z,83.00
2019-04-23T10:30:15.703Z,83.50
2019-04-23T10:32:45.317Z,82.90
2019-04-23T10:35:25.626Z,82.30
2019-04-23T10:37:52.922Z,82.50
2019-04-23T10:40:22.650Z,82.40
2019-04-23T10:42:50.148Z,83.30
2019-04-23T10:45:44.639Z,82.50
2019-04-23T10:49:22.457Z,83.00
2019-04-23T10:59:06.162Z,82.90
2019-04-23T11:01:35.844Z,82.30
2019-04-23T11:04:21.702Z,81.00
2019-04-23T11:06:46.653Z,80.90
2019-04-23T11:09:27.785Z,81.40
2019-04-23T11:11:52.472Z,82.50
2019-04-23T11:14:25.351Z,80.70
2019-04-23T11:16:56.691Z,82.30
2019-04-23T11:19:32.291Z,82.80
2019-04-23T11:22:04.268Z,81.80
2019-04-23T11:24:38.154Z,82.50
2019-04-23T11:27:01.839Z,82.00
2019-04-23T11:29:34.387Z,81.40
2019-04-23T11:32:13.401Z,81.10
2019-04-23T11:34:50.399Z,81.70
2019-04-23T11:39:39.806Z,81.00
2019-04-23T11:42:05.084Z,81.40
2019-04-23T11:44:56.074Z,82.10
2019-04-23T11:47:23.154Z,81.70
2019-04-23T11:52:30.815Z,81.70
2019-04-23T11:54:53.908Z,80.30
2019-04-23T11:59:53.416Z,81.70
2019-04-23T12:02:44.743Z,81.10
2019-04-23T12:05:42.816Z,80.90
2019-04-23T12:13:45.288Z,79.60
2019-04-23T12:16:15.007Z,80.10
2019-04-23T12:21:20.200Z,80.70
2019-04-23T12:26:29.854Z,79.90
2019-04-23T12:28:53.660Z,80.00
2019-04-23T12:31:28.410Z,80.80
2019-04-23T12:33:57.431Z,79.70
2019-04-23T12:36:39.889Z,79.70
2019-04-23T12:39:04.622Z,80.40
2019-04-23T12:41:36.143Z,80.50
2019-04-23T12:44:11.179Z,80.50
2019-04-23T12:46:41.493Z,79.70
2019-04-23T12:49:20.536Z,80.00
2019-04-23T12:51:47.283Z,80.30
2019-04-23T12:54:20.808Z,79.90
2019-04-23T12:56:48.104Z,79.50
2019-04-23T12:59:09.056Z,78.60
2019-04-23T13:01:48.983Z,79.20
2019-04-23T13:04:09.272Z,80.90
2019-04-23T13:06:44.234Z,80.10
2019-04-23T13:09:21.971Z,80.70
2019-04-23T13:11:51.682Z,80.70
2019-04-23T13:14:29.606Z,80.00
2019-04-23T13:17:02.024Z,80.40
2019-04-23T13:19:33.935Z,80.70
2019-04-23T13:22:09.924Z,80.40
2019-04-23T13:24:40.753Z,81.30
2019-04-23T13:27:23.851Z,80.90
2019-04-23T13:29:51.507Z,80.60
2019-04-23T13:32:20.512Z,80.30
2019-04-23T13:37:31.663Z,81.00
2019-04-23T13:42:33.680Z,81.70
2019-04-23T13:44:57.511Z,82.00
2019-04-23T13:47:43.359Z,81.90
2019-04-23T13:50:03.372Z,82.60
2019-04-23T13:52:50.506Z,81.60
2019-04-23T13:55:10.932Z,81.70
2019-04-23T14:00:21.434Z,80.90
2019-04-23T14:05:23.969Z,80.70
2019-04-23T14:13:08.265Z,80.00
2019-04-23T14:15:36.938Z,80.40
2019-04-23T14:18:36.764Z,79.40
2019-04-23T14:20:27.674Z,79.50
2019-04-23T14:23:08.633Z,79.20
2019-04-23T14:25:31.409Z,79.50
2019-04-23T14:28:16.093Z,79.60
2019-04-23T14:33:15.473Z,78.40
2019-04-23T14:35:37.221Z,78.80
2019-04-23T14:43:13.941Z,80.20
2019-04-23T14:46:15.670Z,80.30
2019-04-23T14:48:17.699Z,80.10
2019-04-23T14:50:50.560Z,80.00
2019-04-23T14:58:36.869Z,79.80
2019-04-23T15:01:16.078Z,80.20
2019-04-23T15:06:12.117Z,80.50
2019-04-23T15:08:39.808Z,80.20
2019-04-23T15:13:36.138Z,79.80
2019-04-23T15:16:16.685Z,79.50
2019-04-23T15:19:28.496Z,80.40
2019-04-23T15:24:25.207Z,79.60
2019-04-23T15:29:05.757Z,79.90
2019-04-23T15:34:17.666Z,80.10
2019-04-23T15:37:11.623Z,79.90
2019-04-23T15:42:08.097Z,80.20
2019-04-23T15:44:19.282Z,79.40
2019-04-23T15:47:02.021Z,78.90
2019-04-23T15:49:26.530Z,79.80
2019-04-23T15:51:57.945Z,79.90
2019-04-23T15:54:39.382Z,80.20
2019-04-23T15:57:30.763Z,80.20
2019-04-23T16:01:42.643Z,80.30
2019-04-23T16:04:08.809Z,80.70
2019-04-23T16:06:38.923Z,80.90
2019-04-23T16:09:31.965Z,81.20
2019-04-23T16:11:59.059Z,81.40
2019-04-23T16:14:50.366Z,81.50
2019-04-23T16:17:24.120Z,81.60
2019-04-23T16:20:28.823Z,82.10
2019-04-23T16:22:52.812Z,82.30
2019-04-23T16:25:12.806Z,82.60
2019-04-23T16:27:50.436Z,82.90
2019-04-23T16:33:08.372Z,82.70
2019-04-23T16:35:50.008Z,83.00
2019-04-23T16:40:47.559Z,83.90
2019-04-23T16:45:51.800Z,84.30
2019-04-23T16:48:34.501Z,84.30
2019-04-23T16:56:07.793Z,84.60
2019-04-23T17:06:04.042Z,86.10
2019-04-23T17:08:42.528Z,86.10
2019-04-23T17:13:46.651Z,86.50
2019-04-23T17:16:12.161Z,86.80
2019-04-23T17:18:39.763Z,86.90
2019-04-23T17:21:05.142Z,87.40
2019-04-23T17:24:01.215Z,87.80
2019-04-23T17:26:26.303Z,88.50
2019-04-23T17:29:02.696Z,89.00
2019-04-23T17:36:57.994Z,90.00
2019-04-23T17:39:36.771Z,90.10
2019-04-23T17:42:30.992Z,90.20
2019-04-23T17:45:30.460Z,90.40
2019-04-23T17:47:47.535Z,90.50
2019-04-23T17:50:20.079Z,90.70
2019-04-23T17:52:52.929Z,90.80
2019-04-23T17:55:15.210Z,90.90
2019-04-23T17:58:06.285Z,90.90
2019-04-23T18:05:36.748Z,91.40
2019-04-23T18:10:38.747Z,91.60
2019-04-23T18:12:57.932Z,91.80
2019-04-23T18:15:17.603Z,91.80
2019-04-23T18:17:57.093Z,91.80
2019-04-23T18:20:36.864Z,91.90
2019-04-23T18:25:46.579Z,92.20
2019-04-23T18:28:10.380Z,92.20
2019-04-23T18:34:03.319Z,92.40
2019-04-23T18:36:13.180Z,92.60
2019-04-23T18:38:55.199Z,92.60
2019-04-23T18:41:15.765Z,92.90
2019-04-23T18:43:50.749Z,93.10
2019-04-23T18:48:54.646Z,93.50
2019-04-23T18:51:21.236Z,93.70
2019-04-23T18:54:05.367Z,93.90
2019-04-23T18:56:31.089Z,94.00
2019-04-23T18:59:02.498Z,94.20
2019-04-23T19:01:40.841Z,94.60
2019-04-23T19:06:41.130Z,94.70
2019-04-23T19:10:10.749Z,95.30
2019-04-23T19:13:07.380Z,95.30
2019-04-23T19:15:42.280Z,95.50
2019-04-23T19:25:38.778Z,96.40
2019-04-23T19:31:16.755Z,96.70
2019-04-23T19:33:53.520Z,97.10
2019-04-23T19:36:20.464Z,97.40
2019-04-23T19:38:58.070Z,97.80
2019-04-23T19:41:20.498Z,98.40
2019-04-23T19:43:56.233Z,98.30
2019-04-23T19:46:38.552Z,98.50
2019-04-23T19:48:57.904Z,98.70
2019-04-23T19:51:26.973Z,98.90
2019-04-23T19:54:22.032Z,99.20
2019-04-23T19:59:43.220Z,99.50
2019-04-23T20:01:58.947Z,99.60
2019-04-23T20:04:12.896Z,99.70
2019-04-23T20:09:40.037Z,99.90
2019-04-23T20:11:55.981Z,99.90
2019-04-23T20:14:25.919Z,99.90
2019-04-23T20:19:30.057Z,99.90
2019-04-23T20:22:00.573Z,99.90
2019-04-23T20:27:09.282Z,99.90
2019-04-23T20:35:08.479Z,99.90
2019-04-23T20:39:56.751Z,99.90
2019-04-23T20:42:27.169Z,99.90
2019-04-23T20:44:59.076Z,99.90
2019-04-23T20:47:30.414Z,99.90
2019-04-23T20:49:51.870Z,99.90
2019-04-23T20:52:29.403Z,99.90
2019-04-23T20:58:07.199Z,99.90
2019-04-23T21:00:56.488Z,99.90
2019-04-23T21:05:43.092Z,99.90
2019-04-23T21:08:22.360Z,99.90
2019-04-23T21:13:43.377Z,99.90
2019-04-23T21:15:52.507Z,99.90
2019-04-23T21:18:31.226Z,99.90
2019-04-23T21:23:48.049Z,99.90
2019-04-23T21:25:54.075Z,99.90
2019-04-23T21:28:35.892Z,99.90
2019-04-23T21:33:48.121Z,99.90
2019-04-23T21:36:36.617Z,99.90
2019-04-23T21:39:53.636Z,99.90
2019-04-23T21:42:48.994Z,99.90
2019-04-23T21:45:13.161Z,99.90
2019-04-23T21:47:51.720Z,99.90
2019-04-23T21:50:22.417Z,99.90
2019-04-23T21:52:50.291Z,99.90
2019-04-23T21:55:25.536Z,99.90
2019-04-23T21:58:01.284Z,99.90
2019-04-23T22:00:14.173Z,99.90
2019-04-23T22:02:57.440Z,99.90
2019-04-23T22:05:25.019Z,99.90
2019-04-23T22:07:56.635Z,99.90
2019-04-23T22:10:49.285Z,99.90
2019-04-23T22:13:02.189Z,99.90
2019-04-23T22:15:39.570Z,99.90
2019-04-23T22:18:00.586Z,99.90
2019-04-23T22:23:05.481Z,99.90
2019-04-23T22:25:31.691Z,99.90
2019-04-23T22:27:58.202Z,99.90
2019-04-23T22:30:36.564Z,99.90
2019-04-23T22:33:09.548Z,99.90
2019-04-23T22:38:18.825Z,99.90
2019-04-23T22:40:36.261Z,99.90
2019-04-23T22:45:43.086Z,99.90
2019-04-23T22:48:06.954Z,99.90
2019-04-23T22:50:47.257Z,99.90
2019-04-23T22:53:08.397Z,99.90
2019-04-23T22:55:49.403Z,99.90
2019-04-23T23:01:07.302Z,99.90
2019-04-23T23:03:33.729Z,99.90
2019-04-23T23:11:02.298Z,99.90
2019-04-23T23:13:50.293Z,99.90
2019-04-23T23:16:06.834Z,99.90
2019-04-23T23:18:31.028Z,99.90
2019-04-23T23:21:06.196Z,99.90
2019-04-23T23:23:39.394Z,99.90
2019-04-23T23:26:14.285Z,99.90
2019-04-23T23:28:48.892Z,99.90
2019-04-23T23:33:55.792Z,99.90
2019-04-23T23:36:20.145Z,99.90
2019-04-23T23:39:00.750Z,99.90
2019-04-23T23:41:26.592Z,99.90
2019-04-23T23:44:20.790Z,99.90
2019-04-23T23:46:50.683Z,99.90
2019-04-23T23:48:56.003Z,99.90
2019-04-23T23:51:36.671Z,99.90
2019-04-23T23:56:30.382Z,99.90
